• Join FlightAware (Why Join?)
  • Login
  • US Flag 
07:40AM EST


 

Airport Tracker/Info


-or-


 

Live Flight TrackerFlight Track Log ✈ N724HS ✈ 11-Jun-2014 ✈ KORL - KFLL

Flight Track Log - Related Links

Times and Time Zones

All times are in EDT time to prevent confusion due to time zone crossing. See the N724HS flight status page for this flight to view local times or setup timezone preferences in your user account.

Time Position Orientation Groundspeed Altitude Reporting Facility
EDT Latitude Longitude Course Direction KTS MPH feet Rate Location/Type
10:12AM 28.5500 -81.3500 233° Southwest 121 139 600  Level Orlando TRACON
10:13AM 28.5167 -81.4000 233° Southwest 182 209 2,000 1,140 Climbing Orlando TRACON
10:14AM 28.4667 -81.4167 196° South 196 226 3,300 1,140 Climbing Orlando TRACON
10:15AM 28.4667 -81.3500 90° East 222 255 4,400 1,440 Climbing Orlando TRACON
10:16AM 28.4833 -81.2833 74° East 192 221 6,300 1,560 Climbing Orlando TRACON
10:18AM 28.4789 -81.1753 93° East 195 224 9,000 1,380 Climbing Miami Center
10:19AM 28.4514 -81.1222 121° Southeast 198 228 10,400 1,200 Climbing Miami Center
10:20AM 28.4244 -81.0681 119° Southeast 197 227 11,600 1,080 Climbing Miami Center
10:21AM 28.3958 -81.0125 120° Southeast 199 229 12,700 1,140 Climbing Miami Center
10:23AM 28.3583 -80.9464 123° Southeast 206 237 14,000 1,020 Climbing Miami Center
10:24AM 28.3186 -80.8983 133° Southeast 207 238 14,900 480 Climbing Miami Center
10:25AM 28.2700 -80.8503 139° Southeast 229 264 15,000  Climbing Miami Center
10:26AM 28.2122 -80.8022 144° Southeast 250 288 15,000  Level Miami Center
10:27AM 28.1528 -80.7528 144° Southeast 258 297 15,000  Level Miami Center
10:28AM 28.0836 -80.6983 145° Southeast 262 302 15,000  Level Miami Center
10:29AM 28.0253 -80.6525 145° Southeast 262 302 15,000  Level Miami Center
10:30AM 27.9633 -80.6036 145° Southeast 262 302 15,000  Level Miami Center
10:31AM 27.9011 -80.5542 145° Southeast 262 302 15,000  Level Miami Center
10:32AM 27.8397 -80.5056 145° Southeast 260 299 15,000  Level Miami Center
10:33AM 27.7831 -80.4614 145° Southeast 258 297 15,000 -120 Level Miami Center
10:34AM 27.7208 -80.4125 145° Southeast 258 297 14,800 -300 Descending Miami Center
10:35AM 27.6561 -80.3617 145° Southeast 265 305 14,400 -420 Descending Miami Center
10:36AM 27.5900 -80.3106 146° Southeast 273 314 14,000 -300 Descending Miami Center
10:37AM 27.5264 -80.2600 145° Southeast 272 313 13,800 -300 Descending Miami Center
10:38AM 27.4661 -80.2133 146° Southeast 271 312 13,400 -480 Descending Miami Center
10:39AM 27.4006 -80.1619 145° Southeast 272 313 12,900 -540 Descending Miami Center
10:40AM 27.3342 -80.1103 145° Southeast 274 315 12,400 -480 Descending Miami Center
10:41AM 27.2681 -80.0589 145° Southeast 275 316 12,000 -300 Descending Miami Center
10:42AM 27.2083 -80.0142 146° Southeast 270 311 11,900 -480 Descending Miami Center
10:43AM 27.1319 -80.0047 174° South 265 305 11,100 -900 Descending Miami Center
10:44AM 27.0542 -79.9975 175° South 266 306 10,100 -1,020 Descending Miami Center
10:45AM 26.9781 -79.9906 175° South 265 305 9,100 -540 Descending Miami Center
10:46AM 26.9036 -79.9842 176° South 259 298 9,000 -60 Descending Miami Center
10:47AM 26.8317 -79.9772 175° South 248 285 9,000  Level Miami Center
10:48AM 26.7653 -79.9714 176° South 247 284 9,000  Level Miami Center
10:49AM 26.6961 -79.9650 175° South 247 284 9,000 -360 Level Miami Center
10:50AM 26.6261 -79.9586 175° South 253 291 8,300 -840 Descending Miami Center
10:51AM 26.6019 -79.9547 172° South 257 296 7,900 -1,020 Descending Miami Center
10:51AM 26.5547 -79.9528 178° South 256 295 7,300 -840 Descending Miami Center
10:52AM 26.5208 -79.9486 174° South 254 292 7,000 -300 Descending Miami Center
10:52AM 26.4869 -79.9472 178° South 246 283 7,000  Level Miami Center
10:53AM 26.4575 -79.9556 194° South 225 259 7,000  Level Miami Center
10:53AM 26.4278 -79.9650 196° South 223 257 7,000  Level Miami Center
10:54AM 26.3956 -79.9742 194° South 225 259 7,000  Level Miami Center
10:54AM 26.3525 -79.9856 193° South 228 262 7,000 -120 Level Miami Center
10:55AM 26.3294 -79.9925 195° South 229 264 6,900 -720 Descending Miami Center
10:55AM 26.2961 -80.0019 194° South 213 245 6,300 -840 Descending Miami Center
10:56AM 26.2764 -80.0069 193° South 199 229 6,100 -300 Descending Miami Center
10:57AM 26.2425 -80.0167 194° South 200 230 6,000 -120 Descending Miami Center
10:57AM 26.2211 -80.0214 191° South 198 228 6,000  Level Miami Center
10:58AM 26.1869 -80.0325 196° South 204 235 6,000  Level Miami Center
10:58AM 26.1656 -80.0381 193° South 206 237 6,000 60 Level Miami Center
10:59AM 26.1564 -80.0750 255° West 203 234 6,100  Climbing Miami Center
10:59AM 26.1556 -80.0978 268° West 201 231 6,000 -240 Descending Miami Center
11:00AM 26.1497 -80.1328 259° West 188 216 5,900 -300 Descending Miami Center
11:00AM 26.1375 -80.1544 238° Southwest 177 204 5,700 -540 Descending Miami Center
11:01AM 26.1350 -80.1842 265° West 185 213 5,400 -720 Descending Miami Center
11:01AM 26.1381 -80.2100 278° West 191 220 5,000 -1,080 Descending Miami Center
11:02AM 26.1414 -80.2542 275° West 188 216 4,300 -600 Descending Miami Center
11:03AM 26.1533 -80.3092 284° West 185 213 4,000 -420 Descending Miami Center
11:04AM 26.1247 -80.3575 237° Southwest 180 207 3,400 -840 Descending Miami Center
11:05AM 26.0917 -80.3494 168° South 180 207 2,300 -1,380 Descending Miami Center
11:05AM 26.0842 -80.3358 122° Southeast 173 199 2,000 -540 Descending Miami Center
11:06AM 26.0772 -80.3039 104° East 168 193 1,800 -300 Descending Miami Center
11:07AM 26.0769 -80.2494 90° East 129 148 1,500 -540 Descending Miami Center
11:08AM 26.0778 -80.2056 89° East 128 147 700 -540 Descending Miami Center
11:09AM 26.0761 -80.1761 94° East 135 155 500 -240 Descending Miami Center
11:13AM 26.0726 -80.1527 190° South  Level Estimated
11:20AM 26.0667 -80.1500 North  Level FlightAware Approximate